createdAt,value
2024-02-29T00:00:58.159Z,954.9
2024-02-29T00:02:00.574Z,954.9
2024-02-29T00:03:02.452Z,954.9
2024-02-29T00:04:04.761Z,954.9
2024-02-29T00:05:07.068Z,954.9
2024-02-29T00:06:08.826Z,954.9
2024-02-29T00:07:10.930Z,954.8
2024-02-29T00:08:12.918Z,954.9
2024-02-29T00:09:14.681Z,954.8
2024-02-29T00:10:16.533Z,954.8
2024-02-29T00:11:18.806Z,954.8
2024-02-29T00:12:20.841Z,954.8
2024-02-29T00:13:22.635Z,954.8
2024-02-29T00:14:24.462Z,954.8
2024-02-29T00:15:26.278Z,954.8
2024-02-29T00:16:28.255Z,954.8
2024-02-29T00:17:30.134Z,954.8
2024-02-29T00:18:32.113Z,954.8
2024-02-29T00:19:33.949Z,954.9
2024-02-29T00:20:35.886Z,954.9
2024-02-29T00:21:42.414Z,954.9
2024-02-29T00:22:44.278Z,954.9
2024-02-29T00:23:46.048Z,954.8
2024-02-29T00:24:47.900Z,954.8
2024-02-29T00:25:49.725Z,954.8
2024-02-29T00:26:51.501Z,954.8
2024-02-29T00:27:53.377Z,954.9
2024-02-29T00:28:55.321Z,954.9
2024-02-29T00:29:57.125Z,954.9
2024-02-29T00:30:59.164Z,954.8
2024-02-29T00:32:01.095Z,954.9
2024-02-29T00:33:03.018Z,954.9
2024-02-29T00:34:05.352Z,954.9
2024-02-29T00:35:07.290Z,954.9
2024-02-29T00:36:11.162Z,954.9
2024-02-29T00:37:13.356Z,954.9
2024-02-29T00:38:15.157Z,954.9
2024-02-29T00:39:16.905Z,954.9
2024-02-29T00:40:18.956Z,954.9
2024-02-29T00:41:21.145Z,954.9
2024-02-29T00:42:22.916Z,954.9
2024-02-29T00:43:24.717Z,954.9
2024-02-29T00:44:26.693Z,954.9
2024-02-29T00:45:28.791Z,955
2024-02-29T00:46:30.855Z,954.9
2024-02-29T00:47:32.768Z,955
2024-02-29T00:48:35.020Z,955
2024-02-29T00:49:36.978Z,955
2024-02-29T00:50:38.772Z,954.9
2024-02-29T00:51:40.917Z,955
2024-02-29T00:52:42.765Z,954.9
2024-02-29T00:53:44.528Z,955
2024-02-29T00:54:46.405Z,955
2024-02-29T00:55:48.210Z,954.9
2024-02-29T00:56:50.016Z,955
2024-02-29T00:57:51.912Z,955
2024-02-29T00:58:56.804Z,955
2024-02-29T00:59:58.618Z,955
2024-02-29T01:01:00.752Z,955
2024-02-29T01:02:03.053Z,954.9
2024-02-29T01:03:05.153Z,954.9
2024-02-29T01:04:07.198Z,954.9
2024-02-29T01:05:09.368Z,955
2024-02-29T01:06:11.131Z,955
2024-02-29T01:07:13.510Z,955
2024-02-29T01:08:15.565Z,955
2024-02-29T01:09:17.330Z,954.9
2024-02-29T01:10:19.653Z,955
2024-02-29T01:11:22.312Z,954.9
2024-02-29T01:12:24.078Z,955
2024-02-29T01:13:25.913Z,955
2024-02-29T01:14:27.672Z,954.9
2024-02-29T01:15:29.695Z,954.9
2024-02-29T01:16:31.797Z,955
2024-02-29T01:17:33.790Z,955
2024-02-29T01:18:36.063Z,955
2024-02-29T01:19:37.856Z,955
2024-02-29T01:20:39.693Z,955.1
2024-02-29T01:21:41.596Z,955
2024-02-29T01:22:43.587Z,955.1
2024-02-29T01:23:45.338Z,955
2024-02-29T01:24:47.240Z,955.1
2024-02-29T01:25:49.174Z,955.1
2024-02-29T01:26:50.947Z,955.1
2024-02-29T01:27:53.033Z,955.1
2024-02-29T01:28:55.008Z,955.1
2024-02-29T01:29:56.991Z,955
2024-02-29T01:30:58.974Z,955.1
2024-02-29T01:32:22.740Z,955.1
2024-02-29T01:33:32.410Z,955.1
2024-02-29T01:34:34.362Z,955.1
2024-02-29T01:35:36.228Z,955.1
2024-02-29T01:36:38.136Z,955.1
2024-02-29T01:37:40.013Z,955.1
2024-02-29T01:38:41.893Z,955
2024-02-29T01:39:43.764Z,955
2024-02-29T01:40:45.525Z,955
2024-02-29T01:41:47.362Z,955
2024-02-29T01:42:49.346Z,955
2024-02-29T01:43:51.275Z,955
2024-02-29T01:44:53.034Z,955
2024-02-29T01:45:55.067Z,955
2024-02-29T01:46:56.993Z,955
2024-02-29T01:47:58.893Z,955
2024-02-29T01:49:00.845Z,954.9
2024-02-29T01:50:02.790Z,954.9
2024-02-29T01:51:04.601Z,954.9
2024-02-29T01:52:06.874Z,954.9
2024-02-29T01:53:08.879Z,954.9
2024-02-29T01:54:10.711Z,954.9
2024-02-29T01:55:13.053Z,954.9
2024-02-29T01:56:15.114Z,954.9
2024-02-29T01:57:16.831Z,954.9
2024-02-29T01:58:18.934Z,954.9
2024-02-29T01:59:20.778Z,954.9
2024-02-29T02:00:22.605Z,954.9
2024-02-29T02:01:24.630Z,954.9
2024-02-29T02:02:26.723Z,954.9
2024-02-29T02:03:28.568Z,954.9
2024-02-29T02:04:30.385Z,954.9
2024-02-29T02:05:32.163Z,955
2024-02-29T02:06:34.137Z,954.9
2024-02-29T02:07:35.979Z,954.9
2024-02-29T02:08:38.077Z,954.9
2024-02-29T02:09:40.436Z,954.9
2024-02-29T02:10:42.339Z,954.9
2024-02-29T02:11:44.371Z,954.9
2024-02-29T02:12:46.281Z,954.9
2024-02-29T02:13:48.170Z,954.9
2024-02-29T02:14:49.958Z,954.9
2024-02-29T02:15:52.157Z,954.9
2024-02-29T02:16:54.090Z,954.9
2024-02-29T02:17:56.068Z,954.9
2024-02-29T02:18:58.026Z,954.9
2024-02-29T02:20:00.115Z,954.9
2024-02-29T02:21:01.927Z,954.9
2024-02-29T02:22:03.987Z,955
2024-02-29T02:23:06.021Z,955
2024-02-29T02:24:07.898Z,955
2024-02-29T02:25:10.494Z,955
2024-02-29T02:26:12.588Z,955.1
2024-02-29T02:27:14.405Z,955.1
2024-02-29T02:28:16.371Z,955.1
2024-02-29T02:29:18.180Z,955.1
2024-02-29T02:30:19.923Z,955.1
2024-02-29T02:31:21.666Z,955.1
2024-02-29T02:32:23.421Z,955
2024-02-29T02:33:25.403Z,955
2024-02-29T02:34:27.302Z,954.9
2024-02-29T02:35:29.037Z,954.9
2024-02-29T02:36:30.944Z,954.8
2024-02-29T02:37:32.858Z,954.8
2024-02-29T02:38:34.587Z,954.8
2024-02-29T02:39:36.503Z,954.8
2024-02-29T02:40:38.717Z,954.9
2024-02-29T02:41:40.582Z,954.9
2024-02-29T02:42:42.459Z,954.9
2024-02-29T02:43:44.219Z,954.9
2024-02-29T02:44:46.025Z,954.9
2024-02-29T02:45:47.835Z,954.9
2024-02-29T02:46:49.670Z,954.9
2024-02-29T02:47:51.576Z,954.9
2024-02-29T02:48:53.592Z,954.9
2024-02-29T02:49:55.566Z,954.8
2024-02-29T02:50:57.552Z,954.8
2024-02-29T02:51:59.430Z,954.8
2024-02-29T02:53:01.270Z,954.8
2024-02-29T02:54:03.051Z,954.8
2024-02-29T02:55:04.936Z,954.8
2024-02-29T02:56:07.363Z,954.7
2024-02-29T02:57:09.147Z,954.8
2024-02-29T02:58:11.353Z,954.7
2024-02-29T02:59:13.235Z,954.7
2024-02-29T03:00:15.070Z,954.7
2024-02-29T03:01:17.151Z,954.7
2024-02-29T03:02:19.118Z,954.7
2024-02-29T03:03:21.075Z,954.7
2024-02-29T03:04:22.826Z,954.7
2024-02-29T03:05:24.901Z,954.7
2024-02-29T03:06:26.650Z,954.7
2024-02-29T03:07:28.468Z,954.7
2024-02-29T03:08:30.297Z,954.8
2024-02-29T03:09:32.837Z,954.8
2024-02-29T03:10:34.760Z,954.8
2024-02-29T03:11:37.061Z,954.8
2024-02-29T03:12:38.847Z,954.8
2024-02-29T03:13:41.040Z,954.8
2024-02-29T03:14:42.796Z,954.8
2024-02-29T03:15:44.756Z,954.8
2024-02-29T03:16:46.648Z,954.8
2024-02-29T03:17:48.647Z,954.8
2024-02-29T03:18:50.844Z,954.8
2024-02-29T03:19:52.804Z,954.8
2024-02-29T03:20:54.572Z,954.8
2024-02-29T03:21:56.670Z,954.8
2024-02-29T03:22:58.575Z,954.8
2024-02-29T03:24:00.444Z,954.8
2024-02-29T03:25:02.535Z,954.8
2024-02-29T03:26:04.427Z,954.8
2024-02-29T03:27:06.334Z,954.8
2024-02-29T03:28:08.498Z,954.7
2024-02-29T03:29:10.522Z,954.8
2024-02-29T03:30:12.369Z,954.8
2024-02-29T03:31:14.464Z,954.8
2024-02-29T03:32:16.543Z,954.8
2024-02-29T03:33:18.284Z,954.8
2024-02-29T03:34:20.301Z,954.7
2024-02-29T03:35:22.351Z,954.7
2024-02-29T03:36:24.128Z,954.7
2024-02-29T03:37:25.941Z,954.7
2024-02-29T03:38:27.781Z,954.7
2024-02-29T03:39:29.644Z,954.7
2024-02-29T03:40:31.414Z,954.7
2024-02-29T03:41:33.210Z,954.7
2024-02-29T03:42:35.227Z,954.7
2024-02-29T03:43:37.030Z,954.7
2024-02-29T03:44:38.780Z,954.7
2024-02-29T03:45:40.998Z,954.7
2024-02-29T03:46:42.863Z,954.7
2024-02-29T03:47:44.849Z,954.7
2024-02-29T03:48:46.822Z,954.8
2024-02-29T03:49:48.731Z,954.7
2024-02-29T03:50:50.580Z,954.8
2024-02-29T03:51:52.649Z,954.7
2024-02-29T03:52:54.679Z,954.8
2024-02-29T03:53:56.494Z,954.8
2024-02-29T03:54:58.611Z,954.8
2024-02-29T03:56:00.531Z,954.8
2024-02-29T03:57:02.261Z,954.8
2024-02-29T03:58:04.392Z,954.8
2024-02-29T03:59:06.267Z,954.7
2024-02-29T04:00:08.103Z,954.7
2024-02-29T04:01:10.476Z,954.8
2024-02-29T04:02:12.359Z,954.8
2024-02-29T04:03:14.231Z,954.8
2024-02-29T04:04:16.082Z,954.8
2024-02-29T04:05:18.096Z,954.8
2024-02-29T04:06:19.898Z,954.8
2024-02-29T04:07:21.749Z,954.8
2024-02-29T04:08:23.530Z,954.7
2024-02-29T04:09:25.251Z,954.7
2024-02-29T04:10:27.155Z,954.6
2024-02-29T04:11:29.075Z,954.7
2024-02-29T04:12:31.020Z,954.7
2024-02-29T04:13:32.933Z,954.7
2024-02-29T04:14:34.660Z,954.7
2024-02-29T04:15:36.633Z,954.7
2024-02-29T04:16:38.698Z,954.7
2024-02-29T04:17:40.764Z,954.7
2024-02-29T04:18:42.811Z,954.7
2024-02-29T04:19:44.851Z,954.7
2024-02-29T04:20:46.570Z,954.7
2024-02-29T04:21:48.842Z,954.6
2024-02-29T04:22:50.867Z,954.6
2024-02-29T04:23:52.599Z,954.6
2024-02-29T04:24:54.520Z,954.6
2024-02-29T04:25:56.428Z,954.6
2024-02-29T04:26:58.139Z,954.6
2024-02-29T04:28:00.283Z,954.5
2024-02-29T04:29:02.656Z,954.5
2024-02-29T04:30:04.880Z,954.4
2024-02-29T04:31:06.983Z,954.4
2024-02-29T04:32:08.996Z,954.5
2024-02-29T04:33:11.106Z,954.5
2024-02-29T04:34:13.248Z,954.5
2024-02-29T04:35:15.151Z,954.5
2024-02-29T04:36:16.958Z,954.5
2024-02-29T04:37:19.128Z,954.6
2024-02-29T04:38:21.256Z,954.5
2024-02-29T04:39:23.009Z,954.5
2024-02-29T04:40:25.043Z,954.5
2024-02-29T04:41:27.111Z,954.4
2024-02-29T04:42:28.955Z,954.5
2024-02-29T04:43:30.727Z,954.5
2024-02-29T04:44:32.576Z,954.5
2024-02-29T04:45:34.476Z,954.5
2024-02-29T04:46:36.512Z,954.5
2024-02-29T04:47:38.445Z,954.5
2024-02-29T04:48:40.336Z,954.5
2024-02-29T04:49:42.298Z,954.5
2024-02-29T04:50:44.111Z,954.4
2024-02-29T04:51:46.132Z,954.5
2024-02-29T04:52:48.040Z,954.4
2024-02-29T04:53:49.761Z,954.4
2024-02-29T04:54:51.545Z,954.5
2024-02-29T04:55:53.393Z,954.5
2024-02-29T04:56:55.197Z,954.5
2024-02-29T04:57:57.222Z,954.5
2024-02-29T04:58:59.042Z,954.5
2024-02-29T05:00:01.434Z,954.5
2024-02-29T05:01:03.687Z,954.5
2024-02-29T05:02:08.337Z,954.5
2024-02-29T05:03:10.419Z,954.5
2024-02-29T05:04:12.565Z,954.5
2024-02-29T05:05:14.653Z,954.5
2024-02-29T05:06:16.853Z,954.5
2024-02-29T05:07:18.958Z,954.5
2024-02-29T05:08:21.027Z,954.5
2024-02-29T05:09:22.781Z,954.6
2024-02-29T05:10:24.632Z,954.6
2024-02-29T05:11:26.491Z,954.6
2024-02-29T05:12:28.307Z,954.6
2024-02-29T05:13:30.088Z,954.6
2024-02-29T05:14:31.800Z,954.6
2024-02-29T05:15:33.920Z,954.6
2024-02-29T05:16:35.771Z,954.6
2024-02-29T05:17:37.606Z,954.6
2024-02-29T05:18:39.718Z,954.6
2024-02-29T05:19:41.499Z,954.6
2024-02-29T05:20:43.286Z,954.7
2024-02-29T05:21:45.327Z,954.7
2024-02-29T05:22:47.196Z,954.7
2024-02-29T05:23:48.992Z,954.6
2024-02-29T05:24:51.190Z,954.6
2024-02-29T05:25:53.061Z,954.7
2024-02-29T05:26:54.818Z,954.7
2024-02-29T05:27:56.708Z,954.7
2024-02-29T05:28:58.670Z,954.7
2024-02-29T05:30:00.495Z,954.7
2024-02-29T05:31:02.775Z,954.7
2024-02-29T05:32:04.790Z,954.7
2024-02-29T05:33:07.091Z,954.7
2024-02-29T05:34:09.258Z,954.8
2024-02-29T05:35:11.290Z,954.8
2024-02-29T05:36:13.097Z,954.7
2024-02-29T05:37:15.428Z,954.7
2024-02-29T05:38:17.404Z,954.7
2024-02-29T05:39:19.147Z,954.7
2024-02-29T05:40:21.233Z,954.8
2024-02-29T05:41:23.401Z,954.7
2024-02-29T05:42:25.212Z,954.8
2024-02-29T05:43:27.230Z,954.8
2024-02-29T05:44:29.016Z,954.8
2024-02-29T05:45:30.847Z,954.8
2024-02-29T05:46:32.894Z,954.8
2024-02-29T05:47:34.776Z,954.8
2024-02-29T05:48:37.301Z,954.8
2024-02-29T05:49:39.096Z,954.9
2024-02-29T05:50:40.987Z,954.8
2024-02-29T05:51:42.816Z,954.9
2024-02-29T05:52:44.656Z,954.8
2024-02-29T05:53:46.405Z,954.8
2024-02-29T05:54:48.289Z,954.9
2024-02-29T05:55:50.248Z,954.9
2024-02-29T05:56:52.089Z,954.9
2024-02-29T05:57:54.057Z,954.9
2024-02-29T05:58:55.886Z,954.9
2024-02-29T05:59:57.975Z,954.9
2024-02-29T06:01:00.615Z,954.9
2024-02-29T06:02:03.566Z,954.9
2024-02-29T06:03:05.685Z,954.8
2024-02-29T06:04:07.626Z,954.8
2024-02-29T06:05:09.852Z,954.8
2024-02-29T06:06:11.972Z,954.8
2024-02-29T06:07:14.005Z,954.8
2024-02-29T06:08:17.850Z,954.8
2024-02-29T06:09:19.706Z,954.8
2024-02-29T06:10:21.810Z,954.8
2024-02-29T06:11:23.950Z,954.8
2024-02-29T06:12:25.910Z,954.8
2024-02-29T06:13:27.686Z,954.8
2024-02-29T06:14:29.474Z,954.8
2024-02-29T06:15:31.224Z,954.8
2024-02-29T06:16:32.928Z,954.8
2024-02-29T06:17:35.303Z,954.8
2024-02-29T06:18:37.236Z,954.8
2024-02-29T06:19:39.184Z,954.8
2024-02-29T06:20:40.997Z,954.8
2024-02-29T06:21:42.936Z,954.8
2024-02-29T06:22:45.118Z,954.8
2024-02-29T06:23:46.935Z,954.8
2024-02-29T06:24:48.900Z,954.8
2024-02-29T06:25:50.765Z,954.8
2024-02-29T06:26:52.778Z,954.8
2024-02-29T06:27:54.675Z,954.8
2024-02-29T06:28:56.631Z,954.8
2024-02-29T06:29:58.530Z,954.8
2024-02-29T06:31:00.694Z,954.8
2024-02-29T06:32:02.915Z,954.8
2024-02-29T06:33:05.358Z,954.8
2024-02-29T06:34:07.451Z,954.9
2024-02-29T06:35:09.469Z,954.8
2024-02-29T06:36:11.265Z,954.8
2024-02-29T06:37:13.767Z,954.8
2024-02-29T06:38:15.965Z,954.8
2024-02-29T06:39:17.734Z,954.8
2024-02-29T06:40:19.846Z,954.8
2024-02-29T06:41:21.629Z,954.8
2024-02-29T06:42:23.344Z,954.9
2024-02-29T06:43:25.274Z,954.9
2024-02-29T06:44:27.040Z,954.9
2024-02-29T06:45:28.857Z,954.9
2024-02-29T06:46:30.556Z,954.9
2024-02-29T06:47:32.386Z,954.9
2024-02-29T06:48:35.225Z,954.9
2024-02-29T06:49:37.348Z,954.9
2024-02-29T06:50:39.152Z,955
2024-02-29T06:51:41.111Z,955
2024-02-29T06:52:43.193Z,955
2024-02-29T06:53:44.962Z,955
2024-02-29T06:54:46.950Z,954.9
2024-02-29T06:55:48.782Z,954.9
2024-02-29T06:56:50.949Z,954.9
2024-02-29T06:57:53.441Z,954.9
2024-02-29T06:58:55.394Z,954.9
2024-02-29T06:59:57.187Z,954.9
2024-02-29T07:00:59.401Z,954.9
2024-02-29T07:02:01.881Z,954.9
2024-02-29T07:03:04.202Z,954.9
2024-02-29T07:04:06.424Z,954.9
2024-02-29T07:05:08.385Z,955
2024-02-29T07:06:10.420Z,955
2024-02-29T07:07:12.675Z,955
2024-02-29T07:08:14.935Z,955
2024-02-29T07:09:16.680Z,955
2024-02-29T07:10:18.655Z,955
2024-02-29T07:11:20.741Z,955
2024-02-29T07:12:22.774Z,955.1
2024-02-29T07:13:24.843Z,955.1
2024-02-29T07:14:26.719Z,955
2024-02-29T07:15:28.580Z,955
2024-02-29T07:16:30.332Z,954.9
2024-02-29T07:17:32.175Z,954.9
2024-02-29T07:18:34.239Z,954.9
2024-02-29T07:19:36.497Z,954.9
2024-02-29T07:20:38.269Z,954.9
2024-02-29T07:21:40.202Z,954.8
2024-02-29T07:22:42.157Z,954.8
2024-02-29T07:23:43.959Z,954.8
2024-02-29T07:24:45.801Z,954.8
2024-02-29T07:25:47.572Z,954.8
2024-02-29T07:26:49.318Z,954.8
2024-02-29T07:27:51.335Z,954.8
2024-02-29T07:28:53.358Z,954.8
2024-02-29T07:29:55.134Z,954.8
2024-02-29T07:30:57.076Z,954.7
2024-02-29T07:31:59.037Z,954.7
2024-02-29T07:33:01.151Z,954.7
2024-02-29T07:34:03.149Z,954.7
2024-02-29T07:35:05.384Z,954.7
2024-02-29T07:36:07.198Z,954.7
2024-02-29T07:37:09.300Z,954.7
2024-02-29T07:38:11.359Z,954.7
2024-02-29T07:39:13.179Z,954.8
2024-02-29T07:40:15.335Z,954.8
2024-02-29T07:41:17.243Z,954.8
2024-02-29T07:42:19.107Z,954.8
2024-02-29T07:43:21.318Z,954.8
2024-02-29T07:44:23.371Z,954.8
2024-02-29T07:45:25.147Z,954.8
2024-02-29T07:46:27.266Z,954.8
2024-02-29T07:47:29.121Z,954.8
2024-02-29T07:48:31.135Z,954.8
2024-02-29T07:49:32.867Z,954.8
2024-02-29T07:50:34.789Z,954.8
2024-02-29T07:51:36.845Z,954.8
2024-02-29T07:52:38.801Z,954.8
2024-02-29T07:53:40.600Z,954.8
2024-02-29T07:54:42.455Z,954.8
2024-02-29T07:55:44.340Z,954.8
2024-02-29T07:56:46.077Z,954.8
2024-02-29T07:57:48.345Z,954.8
2024-02-29T07:58:50.240Z,954.8
2024-02-29T07:59:51.957Z,954.7
2024-02-29T08:00:54.087Z,954.7
2024-02-29T08:01:56.553Z,954.7
2024-02-29T08:02:58.655Z,954.7
2024-02-29T08:04:00.733Z,954.7
2024-02-29T08:05:02.782Z,954.7
2024-02-29T08:06:05.179Z,954.7
2024-02-29T08:07:07.109Z,954.7
2024-02-29T08:08:09.123Z,954.7
2024-02-29T08:09:11.535Z,954.7
2024-02-29T08:10:13.633Z,954.7
2024-02-29T08:11:15.953Z,954.6
2024-02-29T08:12:17.715Z,954.6
2024-02-29T08:13:19.844Z,954.6
2024-02-29T08:14:21.938Z,954.6
2024-02-29T08:15:23.731Z,954.5
2024-02-29T08:16:25.735Z,954.5
2024-02-29T08:17:27.735Z,954.5
2024-02-29T08:18:29.654Z,954.5
2024-02-29T08:19:31.470Z,954.5
2024-02-29T08:20:33.238Z,954.5
2024-02-29T08:21:41.010Z,954.5
2024-02-29T08:22:43.265Z,954.5
2024-02-29T08:23:45.090Z,954.4
2024-02-29T08:24:46.861Z,954.4
2024-02-29T08:25:48.677Z,954.4
2024-02-29T08:26:50.540Z,954.3
2024-02-29T08:27:52.494Z,954.3
2024-02-29T08:28:54.324Z,954.3
2024-02-29T08:29:56.044Z,954.3
2024-02-29T08:30:58.187Z,954.2
2024-02-29T08:32:00.101Z,954.2
2024-02-29T08:33:02.519Z,954.2
2024-02-29T08:34:04.797Z,954.2
2024-02-29T08:35:06.908Z,954.3
2024-02-29T08:36:08.653Z,954.2
2024-02-29T08:37:10.867Z,954.3
2024-02-29T08:38:12.945Z,954.3
2024-02-29T08:39:14.800Z,954.4
2024-02-29T08:40:16.774Z,954.3
2024-02-29T08:41:18.671Z,954.3
2024-02-29T08:42:20.444Z,954.3
2024-02-29T08:43:22.277Z,954.3
2024-02-29T08:44:24.667Z,954.3
2024-02-29T08:45:26.481Z,954.3
2024-02-29T08:46:28.580Z,954.2
2024-02-29T08:47:30.619Z,954.2
2024-02-29T08:48:32.467Z,954.2
2024-02-29T08:49:34.551Z,954.3
2024-02-29T08:50:36.405Z,954.3
2024-02-29T08:51:38.285Z,954.2
2024-02-29T08:52:40.177Z,954.3
2024-02-29T08:53:41.900Z,954.3
2024-02-29T08:54:43.738Z,954.4
2024-02-29T08:55:45.601Z,954.3
2024-02-29T08:56:47.418Z,954.4
2024-02-29T08:57:49.266Z,954.4
2024-02-29T08:58:51.108Z,954.4
2024-02-29T08:59:52.928Z,954.3
2024-02-29T09:00:55.010Z,954.3
2024-02-29T09:01:57.384Z,954.3
2024-02-29T09:02:59.560Z,954.3
2024-02-29T09:04:01.591Z,954.3
2024-02-29T09:05:03.691Z,954.2
2024-02-29T09:06:05.703Z,954.2
2024-02-29T09:07:07.691Z,954.2
2024-02-29T09:08:09.688Z,954.3
2024-02-29T09:09:11.449Z,954.4
2024-02-29T09:10:13.632Z,954.3
2024-02-29T09:11:16.157Z,954.2
2024-02-29T09:12:17.947Z,954.2
2024-02-29T09:13:36.436Z,954.2
2024-02-29T09:14:38.458Z,954.2
2024-02-29T09:15:40.275Z,954.2
2024-02-29T09:16:42.091Z,954.2
2024-02-29T09:17:44.003Z,954.2
2024-02-29T09:18:46.211Z,954.2
2024-02-29T09:19:48.057Z,954.2
2024-02-29T09:20:49.798Z,954.2
2024-02-29T09:21:51.801Z,954.2
2024-02-29T09:22:53.696Z,954.2
2024-02-29T09:23:55.699Z,954.3
2024-02-29T09:24:57.738Z,954.3
2024-02-29T09:25:59.645Z,954.3
2024-02-29T09:27:01.587Z,954.3
2024-02-29T09:28:03.827Z,954.3
2024-02-29T09:29:05.919Z,954.3
2024-02-29T09:30:07.817Z,954.3
2024-02-29T09:31:09.849Z,954.3
2024-02-29T09:32:11.760Z,954.4
2024-02-29T09:33:13.989Z,954.4
2024-02-29T09:34:15.999Z,954.4
2024-02-29T09:35:17.773Z,954.5
2024-02-29T09:36:19.588Z,954.4
2024-02-29T09:37:21.838Z,954.4
2024-02-29T09:38:23.863Z,954.4
2024-02-29T09:39:25.893Z,954.4
2024-02-29T09:40:49.555Z,954.4
2024-02-29T09:42:16.074Z,954.4
2024-02-29T09:43:19.020Z,954.4
2024-02-29T09:44:21.107Z,954.4
2024-02-29T09:45:26.223Z,954.4
2024-02-29T09:46:27.996Z,954.4
2024-02-29T09:47:30.189Z,954.3
2024-02-29T09:48:32.305Z,954.3
2024-02-29T09:49:34.218Z,954.3
2024-02-29T09:50:35.989Z,954.3
2024-02-29T09:51:37.841Z,954.3
2024-02-29T09:52:39.676Z,954.3
2024-02-29T09:53:41.638Z,954.3
2024-02-29T09:54:43.934Z,954.3
2024-02-29T09:55:45.851Z,954.3
2024-02-29T09:56:48.569Z,954.3
2024-02-29T09:57:50.699Z,954.3
2024-02-29T09:58:52.574Z,954.3
2024-02-29T09:59:54.504Z,954.3
2024-02-29T10:00:56.567Z,954.3
2024-02-29T10:01:59.369Z,954.3
2024-02-29T10:03:01.566Z,954.3
2024-02-29T10:04:03.696Z,954.3
2024-02-29T10:05:05.516Z,954.3
2024-02-29T10:06:07.405Z,954.3
2024-02-29T10:07:09.295Z,954.3
2024-02-29T10:08:11.215Z,954.3
2024-02-29T10:09:12.975Z,954.3
2024-02-29T10:10:15.327Z,954.2
2024-02-29T10:11:17.742Z,954.3
2024-02-29T10:12:20.286Z,954.3
2024-02-29T10:13:22.763Z,954.3
2024-02-29T10:14:24.778Z,954.3
2024-02-29T10:15:27.000Z,954.3
2024-02-29T10:16:30.017Z,954.3
2024-02-29T10:17:32.061Z,954.2
2024-02-29T10:18:33.891Z,954.2
2024-02-29T10:19:35.672Z,954.2
2024-02-29T10:20:37.492Z,954.2
2024-02-29T10:21:39.350Z,954.2
2024-02-29T10:22:44.012Z,954.2
2024-02-29T10:23:46.885Z,954.2
2024-02-29T10:24:48.957Z,954.2
2024-02-29T10:25:50.918Z,954.2
2024-02-29T10:26:52.792Z,954.2
2024-02-29T10:27:54.677Z,954.2
2024-02-29T10:28:56.465Z,954.2
2024-02-29T10:29:58.476Z,954.2
2024-02-29T10:31:00.511Z,954.2
2024-02-29T10:32:02.405Z,954.2
2024-02-29T10:33:04.259Z,954.2
2024-02-29T10:34:06.163Z,954.2
2024-02-29T10:35:08.032Z,954.2
2024-02-29T10:36:09.936Z,954.1
2024-02-29T10:37:11.868Z,954.1
2024-02-29T10:38:13.771Z,954.1
2024-02-29T10:39:15.559Z,954.1
2024-02-29T10:40:17.715Z,954
2024-02-29T10:41:19.938Z,954
2024-02-29T10:42:21.787Z,954
2024-02-29T10:43:24.002Z,953.9
2024-02-29T10:44:25.865Z,953.9
2024-02-29T10:45:28.521Z,953.9
2024-02-29T10:46:30.372Z,953.9
2024-02-29T10:47:32.225Z,953.9
2024-02-29T10:48:34.033Z,953.9
2024-02-29T10:49:35.831Z,953.9
2024-02-29T10:50:37.594Z,953.9
2024-02-29T10:51:39.595Z,953.8
2024-02-29T10:52:41.386Z,953.8
2024-02-29T10:53:43.167Z,953.8
2024-02-29T10:54:44.972Z,953.8
2024-02-29T10:55:46.840Z,953.8
2024-02-29T10:56:48.713Z,953.8
2024-02-29T10:57:50.768Z,953.8
2024-02-29T10:58:52.510Z,953.7
2024-02-29T10:59:54.323Z,953.7
2024-02-29T11:00:56.458Z,953.7
2024-02-29T11:01:59.254Z,953.7
2024-02-29T11:03:01.614Z,953.7
2024-02-29T11:04:03.524Z,953.7
2024-02-29T11:05:05.387Z,953.7
2024-02-29T11:06:07.219Z,953.7
2024-02-29T11:07:09.159Z,953.7
2024-02-29T11:08:11.083Z,953.7
2024-02-29T11:09:12.924Z,953.8
2024-02-29T11:10:14.831Z,953.7
2024-02-29T11:11:16.924Z,953.7
2024-02-29T11:12:19.715Z,953.7
2024-02-29T11:13:22.026Z,953.6
2024-02-29T11:14:24.084Z,953.7
2024-02-29T11:15:28.048Z,953.6
2024-02-29T11:16:30.340Z,953.6
2024-02-29T11:17:32.926Z,953.6
2024-02-29T11:18:34.831Z,953.6
2024-02-29T11:19:57.735Z,953.5
2024-02-29T11:20:59.780Z,953.5
2024-02-29T11:22:01.950Z,953.5
2024-02-29T11:23:12.144Z,953.4
2024-02-29T11:24:13.930Z,953.4
2024-02-29T11:25:15.983Z,953.3
2024-02-29T11:26:18.016Z,953.3
2024-02-29T11:27:19.845Z,953.3
2024-02-29T11:28:22.053Z,953.3
2024-02-29T11:29:24.077Z,953.3
2024-02-29T11:30:26.342Z,953.3
2024-02-29T11:31:28.492Z,953.3
2024-02-29T11:32:30.522Z,953.3
2024-02-29T11:33:32.637Z,953.3
2024-02-29T11:34:35.032Z,953.3
2024-02-29T11:35:37.008Z,953.2
2024-02-29T11:36:38.867Z,953.2
2024-02-29T11:37:41.300Z,953.2
2024-02-29T11:38:43.296Z,953.2
2024-02-29T11:39:45.241Z,953.2
2024-02-29T11:40:47.056Z,953.2
2024-02-29T11:41:48.897Z,953.2
2024-02-29T11:42:50.772Z,953.1
2024-02-29T11:43:52.824Z,953
2024-02-29T11:44:54.597Z,953
2024-02-29T11:45:56.523Z,953
2024-02-29T11:46:58.336Z,953
2024-02-29T11:48:00.274Z,953
2024-02-29T11:49:02.483Z,953
2024-02-29T11:50:04.445Z,953
2024-02-29T11:51:06.268Z,953
2024-02-29T11:52:08.232Z,953
2024-02-29T11:53:10.096Z,953
2024-02-29T11:54:11.840Z,952.9
2024-02-29T11:55:14.026Z,953
2024-02-29T11:56:17.653Z,952.9
2024-02-29T11:57:19.749Z,952.8
2024-02-29T11:58:22.041Z,952.8
2024-02-29T11:59:24.397Z,952.8
2024-02-29T12:00:26.313Z,952.8
2024-02-29T12:01:28.550Z,952.8
2024-02-29T12:02:30.427Z,952.8
2024-02-29T12:03:32.177Z,952.8
2024-02-29T12:04:34.517Z,952.8
2024-02-29T12:05:36.709Z,952.8
2024-02-29T12:06:39.057Z,952.8
2024-02-29T12:07:40.920Z,952.8
2024-02-29T12:08:42.803Z,952.7
2024-02-29T12:09:44.660Z,952.7
2024-02-29T12:10:49.764Z,952.6
2024-02-29T12:11:51.548Z,952.6
2024-02-29T12:12:53.493Z,952.5
2024-02-29T12:13:55.451Z,952.5
2024-02-29T12:14:57.372Z,952.5
2024-02-29T12:15:59.434Z,952.5
2024-02-29T12:17:01.236Z,952.5
2024-02-29T12:18:03.344Z,952.6
2024-02-29T12:19:05.607Z,952.6
2024-02-29T12:20:07.552Z,952.5
2024-02-29T12:21:09.361Z,952.5
2024-02-29T12:22:11.133Z,952.5
2024-02-29T12:23:13.228Z,952.4
2024-02-29T12:24:15.014Z,952.3
2024-02-29T12:25:17.124Z,952.3
2024-02-29T12:26:18.951Z,952.3
2024-02-29T12:27:20.781Z,952.3
2024-02-29T12:28:22.778Z,952.2
2024-02-29T12:29:24.760Z,952.2
2024-02-29T12:30:26.957Z,952.2
2024-02-29T12:31:28.925Z,952.2
2024-02-29T12:32:30.785Z,952.2
2024-02-29T12:33:33.095Z,952.2
2024-02-29T12:34:35.721Z,952.2
2024-02-29T12:35:37.849Z,952.2
2024-02-29T12:36:39.793Z,952.2
2024-02-29T12:37:41.738Z,952.2
2024-02-29T12:38:43.549Z,952.3
2024-02-29T12:39:47.789Z,952.3
2024-02-29T12:40:49.602Z,952.3
2024-02-29T12:41:51.465Z,952.3
2024-02-29T12:42:53.337Z,952.3
2024-02-29T12:43:55.168Z,952.3
2024-02-29T12:44:56.977Z,952.3
2024-02-29T12:45:59.445Z,952.4
2024-02-29T12:47:01.443Z,952.4
2024-02-29T12:48:03.539Z,952.4
2024-02-29T12:49:05.759Z,952.4
2024-02-29T12:50:07.762Z,952.4
2024-02-29T12:51:09.554Z,952.5
2024-02-29T12:52:11.420Z,952.5
2024-02-29T12:53:13.374Z,952.5
2024-02-29T12:54:15.172Z,952.5
2024-02-29T12:55:17.332Z,952.5
2024-02-29T12:56:19.345Z,952.6
2024-02-29T12:57:21.170Z,952.6
2024-02-29T12:58:23.407Z,952.7
2024-02-29T12:59:25.551Z,952.7
2024-02-29T13:00:27.380Z,952.6
2024-02-29T13:01:29.886Z,952.6
2024-02-29T13:02:32.037Z,952.6
2024-02-29T13:03:34.032Z,952.6
2024-02-29T13:04:36.377Z,952.6
2024-02-29T13:05:38.829Z,952.6
2024-02-29T13:06:40.966Z,952.6
2024-02-29T13:07:43.012Z,952.6
2024-02-29T13:08:44.813Z,952.6
2024-02-29T13:09:46.764Z,952.6
2024-02-29T13:10:48.675Z,952.6
2024-02-29T13:11:50.993Z,952.6
2024-02-29T13:13:10.448Z,952.6
2024-02-29T13:14:13.256Z,952.6
2024-02-29T13:15:15.072Z,952.5
2024-02-29T13:16:17.156Z,952.4
2024-02-29T13:17:19.398Z,952.5
2024-02-29T13:18:21.297Z,952.5
2024-02-29T13:19:23.227Z,952.5
2024-02-29T13:20:25.194Z,952.5
2024-02-29T13:21:26.961Z,952.5
2024-02-29T13:22:29.071Z,952.4
2024-02-29T13:23:31.088Z,952.5
2024-02-29T13:24:32.901Z,952.5
2024-02-29T13:25:35.274Z,952.5
2024-02-29T13:26:37.286Z,952.6